sensor_id;sensor_type;location;lat;lon;timestamp;P1;durP1;ratioP1;P2;durP2;ratioP2
44126;SDS011;29786;50.798;7.302;2023-05-07T00:00:40;3.8;;;2.2;;
44126;SDS011;29786;50.798;7.302;2023-05-07T00:01:54;2.2;;;2;;
44126;SDS011;29786;50.798;7.302;2023-05-07T00:03:09;2.3;;;2.1;;
44126;SDS011;29786;50.798;7.302;2023-05-07T00:04:23;2.8;;;2.1;;
44126;SDS011;29786;50.798;7.302;2023-05-07T00:06:51;2.8;;;2;;
44126;SDS011;29786;50.798;7.302;2023-05-07T00:08:05;3.2;;;2.1;;
44126;SDS011;29786;50.798;7.302;2023-05-07T00:09:19;2.3;;;1.9;;
44126;SDS011;29786;50.798;7.302;2023-05-07T00:11:47;2.4;;;2.1;;
44126;SDS011;29786;50.798;7.302;2023-05-07T00:13:02;3;;;1.9;;
44126;SDS011;29786;50.798;7.302;2023-05-07T00:14:16;3.2;;;2.1;;
44126;SDS011;29786;50.798;7.302;2023-05-07T00:16:44;2.4;;;1.9;;
44126;SDS011;29786;50.798;7.302;2023-05-07T00:17:58;3;;;1.6;;
44126;SDS011;29786;50.798;7.302;2023-05-07T00:19:12;5.3;;;2;;
44126;SDS011;29786;50.798;7.302;2023-05-07T00:21:41;5.1;;;2.1;;
44126;SDS011;29786;50.798;7.302;2023-05-07T00:22:55;2.5;;;1.9;;
44126;SDS011;29786;50.798;7.302;2023-05-07T00:24:09;2.8;;;1.9;;
44126;SDS011;29786;50.798;7.302;2023-05-07T00:25:23;2.1;;;1.9;;
44126;SDS011;29786;50.798;7.302;2023-05-07T00:27:51;3.2;;;1.9;;
44126;SDS011;29786;50.798;7.302;2023-05-07T00:29:05;2;;;1.8;;
44126;SDS011;29786;50.798;7.302;2023-05-07T00:30:20;2.5;;;1.8;;
44126;SDS011;29786;50.798;7.302;2023-05-07T00:32:48;2.9;;;2;;
44126;SDS011;29786;50.798;7.302;2023-05-07T00:34:02;3;;;2;;
44126;SDS011;29786;50.798;7.302;2023-05-07T00:35:16;2.9;;;2.1;;
44126;SDS011;29786;50.798;7.302;2023-05-07T00:37:44;3.1;;;1.9;;
44126;SDS011;29786;50.798;7.302;2023-05-07T00:38:59;2.6;;;2;;
44126;SDS011;29786;50.798;7.302;2023-05-07T00:40:13;3.2;;;2;;
44126;SDS011;29786;50.798;7.302;2023-05-07T00:42:41;3.7;;;2;;
44126;SDS011;29786;50.798;7.302;2023-05-07T00:43:55;2.8;;;2.1;;
44126;SDS011;29786;50.798;7.302;2023-05-07T00:45:09;2.4;;;1.9;;
44126;SDS011;29786;50.798;7.302;2023-05-07T00:46:23;2.1;;;1.6;;
44126;SDS011;29786;50.798;7.302;2023-05-07T00:48:52;2.8;;;2.1;;
44126;SDS011;29786;50.798;7.302;2023-05-07T00:50:06;4;;;2;;
44126;SDS011;29786;50.798;7.302;2023-05-07T00:51:20;3.2;;;1.8;;
44126;SDS011;29786;50.798;7.302;2023-05-07T00:53:48;2.6;;;2;;
44126;SDS011;29786;50.798;7.302;2023-05-07T00:55:04;2.6;;;1.9;;
44126;SDS011;29786;50.798;7.302;2023-05-07T00:56:16;2.6;;;2;;
44126;SDS011;29786;50.798;7.302;2023-05-07T00:58:45;3.3;;;1.9;;
44126;SDS011;29786;50.798;7.302;2023-05-07T00:59:59;3.3;;;1.9;;
44126;SDS011;29786;50.798;7.302;2023-05-07T01:01:13;2.9;;;1.9;;
44126;SDS011;29786;50.798;7.302;2023-05-07T01:02:27;1.8;;;1.7;;
44126;SDS011;29786;50.798;7.302;2023-05-07T01:03:41;2.3;;;1.8;;
44126;SDS011;29786;50.798;7.302;2023-05-07T01:04:55;3;;;2.1;;
44126;SDS011;29786;50.798;7.302;2023-05-07T01:06:09;2.3;;;1.9;;
44126;SDS011;29786;50.798;7.302;2023-05-07T01:07:23;3;;;1.7;;
44126;SDS011;29786;50.798;7.302;2023-05-07T01:09:52;2.1;;;1.9;;
44126;SDS011;29786;50.798;7.302;2023-05-07T01:11:06;2.3;;;1.9;;
44126;SDS011;29786;50.798;7.302;2023-05-07T01:12:20;2.7;;;1.8;;
44126;SDS011;29786;50.798;7.302;2023-05-07T01:14:48;1.9;;;1.6;;
44126;SDS011;29786;50.798;7.302;2023-05-07T01:16:02;1.9;;;1.7;;
44126;SDS011;29786;50.798;7.302;2023-05-07T01:17:17;3.2;;;1.8;;
44126;SDS011;29786;50.798;7.302;2023-05-07T01:19:45;3.2;;;1.9;;
44126;SDS011;29786;50.798;7.302;2023-05-07T01:20:59;2.5;;;1.9;;
44126;SDS011;29786;50.798;7.302;2023-05-07T01:22:13;2;;;1.8;;
44126;SDS011;29786;50.798;7.302;2023-05-07T01:24:41;2;;;1.5;;
44126;SDS011;29786;50.798;7.302;2023-05-07T01:25:55;3;;;1.9;;
44126;SDS011;29786;50.798;7.302;2023-05-07T01:27:10;1.9;;;1.7;;
44126;SDS011;29786;50.798;7.302;2023-05-07T01:28:24;3;;;1.8;;
44126;SDS011;29786;50.798;7.302;2023-05-07T01:30:53;2.3;;;1.8;;
44126;SDS011;29786;50.798;7.302;2023-05-07T01:32:06;2;;;1.8;;
44126;SDS011;29786;50.798;7.302;2023-05-07T01:33:21;3.6;;;1.9;;
44126;SDS011;29786;50.798;7.302;2023-05-07T01:35:50;2.4;;;2;;
44126;SDS011;29786;50.798;7.302;2023-05-07T01:37:03;2.6;;;1.7;;
44126;SDS011;29786;50.798;7.302;2023-05-07T01:38:17;3.5;;;1.9;;
44126;SDS011;29786;50.798;7.302;2023-05-07T01:40:45;2.3;;;1.7;;
44126;SDS011;29786;50.798;7.302;2023-05-07T01:41:59;3.6;;;1.7;;
44126;SDS011;29786;50.798;7.302;2023-05-07T01:43:13;1.9;;;1.7;;
44126;SDS011;29786;50.798;7.302;2023-05-07T01:45:42;2.1;;;1.8;;
44126;SDS011;29786;50.798;7.302;2023-05-07T01:46:56;3.2;;;1.9;;
44126;SDS011;29786;50.798;7.302;2023-05-07T01:48:10;2.5;;;1.8;;
44126;SDS011;29786;50.798;7.302;2023-05-07T01:49:24;2.5;;;1.8;;
44126;SDS011;29786;50.798;7.302;2023-05-07T01:51:52;4.2;;;1.7;;
44126;SDS011;29786;50.798;7.302;2023-05-07T01:53:06;3.1;;;1.9;;
44126;SDS011;29786;50.798;7.302;2023-05-07T01:54:25;2.2;;;1.7;;
44126;SDS011;29786;50.798;7.302;2023-05-07T01:56:49;2.7;;;2;;
44126;SDS011;29786;50.798;7.302;2023-05-07T01:58:03;1.9;;;1.6;;
44126;SDS011;29786;50.798;7.302;2023-05-07T01:59:17;4.1;;;2.1;;
44126;SDS011;29786;50.798;7.302;2023-05-07T02:01:45;2.6;;;2;;
44126;SDS011;29786;50.798;7.302;2023-05-07T02:02:59;2;;;1.8;;
44126;SDS011;29786;50.798;7.302;2023-05-07T02:04:14;2.9;;;1.9;;
44126;SDS011;29786;50.798;7.302;2023-05-07T02:06:42;3.2;;;2;;
44126;SDS011;29786;50.798;7.302;2023-05-07T02:07:56;3.8;;;1.9;;
44126;SDS011;29786;50.798;7.302;2023-05-07T02:09:10;2.2;;;2;;
44126;SDS011;29786;50.798;7.302;2023-05-07T02:10:24;3;;;1.9;;
44126;SDS011;29786;50.798;7.302;2023-05-07T02:12:53;2.1;;;1.8;;
44126;SDS011;29786;50.798;7.302;2023-05-07T02:14:07;3.5;;;2.1;;
44126;SDS011;29786;50.798;7.302;2023-05-07T02:15:21;4;;;2;;
44126;SDS011;29786;50.798;7.302;2023-05-07T02:18:07;2.2;;;2;;
44126;SDS011;29786;50.798;7.302;2023-05-07T02:19:03;2.3;;;2.1;;
44126;SDS011;29786;50.798;7.302;2023-05-07T02:20:17;2.9;;;1.8;;
44126;SDS011;29786;50.798;7.302;2023-05-07T02:22:46;2.9;;;1.9;;
44126;SDS011;29786;50.798;7.302;2023-05-07T02:24:00;2.9;;;1.8;;
44126;SDS011;29786;50.798;7.302;2023-05-07T02:25:14;3.1;;;2;;
44126;SDS011;29786;50.798;7.302;2023-05-07T02:26:28;3.4;;;2;;
44126;SDS011;29786;50.798;7.302;2023-05-07T02:27:42;2.2;;;1.9;;
44126;SDS011;29786;50.798;7.302;2023-05-07T02:28:56;3.2;;;2.2;;
44126;SDS011;29786;50.798;7.302;2023-05-07T02:30:10;2.5;;;1.9;;
44126;SDS011;29786;50.798;7.302;2023-05-07T02:31:25;2.2;;;1.9;;
44126;SDS011;29786;50.798;7.302;2023-05-07T02:33:53;3.2;;;2;;
44126;SDS011;29786;50.798;7.302;2023-05-07T02:35:07;2.4;;;1.9;;
44126;SDS011;29786;50.798;7.302;2023-05-07T02:36:21;2.2;;;2;;
44126;SDS011;29786;50.798;7.302;2023-05-07T02:38:49;2.5;;;2.1;;
44126;SDS011;29786;50.798;7.302;2023-05-07T02:40:04;3.2;;;2;;
44126;SDS011;29786;50.798;7.302;2023-05-07T02:41:18;4;;;2.5;;
44126;SDS011;29786;50.798;7.302;2023-05-07T02:43:46;3.1;;;2.1;;
44126;SDS011;29786;50.798;7.302;2023-05-07T02:45:00;2.6;;;2;;
44126;SDS011;29786;50.798;7.302;2023-05-07T02:46:14;2.4;;;2.1;;
44126;SDS011;29786;50.798;7.302;2023-05-07T02:48:42;2.7;;;2.2;;
44126;SDS011;29786;50.798;7.302;2023-05-07T02:49:57;3.8;;;2.1;;
44126;SDS011;29786;50.798;7.302;2023-05-07T02:51:11;2.5;;;1.9;;
44126;SDS011;29786;50.798;7.302;2023-05-07T02:52:25;2.6;;;2.2;;
44126;SDS011;29786;50.798;7.302;2023-05-07T02:54:53;3.7;;;2.2;;
44126;SDS011;29786;50.798;7.302;2023-05-07T02:56:07;2.9;;;2.3;;
44126;SDS011;29786;50.798;7.302;2023-05-07T02:57:21;2.4;;;1.8;;
44126;SDS011;29786;50.798;7.302;2023-05-07T02:59:50;2.7;;;2.3;;
44126;SDS011;29786;50.798;7.302;2023-05-07T03:01:04;3.5;;;2.3;;
44126;SDS011;29786;50.798;7.302;2023-05-07T03:02:18;2.3;;;2.1;;
44126;SDS011;29786;50.798;7.302;2023-05-07T03:04:46;3.2;;;2.1;;
44126;SDS011;29786;50.798;7.302;2023-05-07T03:06:00;3.4;;;2.2;;
44126;SDS011;29786;50.798;7.302;2023-05-07T03:07:14;2.9;;;1.9;;
44126;SDS011;29786;50.798;7.302;2023-05-07T03:09:43;2;;;1.8;;
44126;SDS011;29786;50.798;7.302;2023-05-07T03:10:57;3.4;;;1.8;;
44126;SDS011;29786;50.798;7.302;2023-05-07T03:12:11;3.5;;;1.9;;
44126;SDS011;29786;50.798;7.302;2023-05-07T03:13:25;3.1;;;2;;
44126;SDS011;29786;50.798;7.302;2023-05-07T03:15:53;2.3;;;2.1;;
44126;SDS011;29786;50.798;7.302;2023-05-07T03:17:08;3.3;;;1.9;;
44126;SDS011;29786;50.798;7.302;2023-05-07T03:18:22;3.3;;;2;;
44126;SDS011;29786;50.798;7.302;2023-05-07T03:20:51;3.2;;;1.8;;
44126;SDS011;29786;50.798;7.302;2023-05-07T03:22:04;5.2;;;2;;
44126;SDS011;29786;50.798;7.302;2023-05-07T03:23:18;2.3;;;1.8;;
44126;SDS011;29786;50.798;7.302;2023-05-07T03:25:47;2.1;;;1.9;;
44126;SDS011;29786;50.798;7.302;2023-05-07T03:27:01;2.8;;;1.7;;
44126;SDS011;29786;50.798;7.302;2023-05-07T03:28:15;2.9;;;2;;
44126;SDS011;29786;50.798;7.302;2023-05-07T03:30:43;3.5;;;1.9;;
44126;SDS011;29786;50.798;7.302;2023-05-07T03:31:57;2.2;;;1.7;;
44126;SDS011;29786;50.798;7.302;2023-05-07T03:33:11;2.2;;;1.8;;
44126;SDS011;29786;50.798;7.302;2023-05-07T03:34:25;2.5;;;2;;
44126;SDS011;29786;50.798;7.302;2023-05-07T03:36:54;3.2;;;1.7;;
44126;SDS011;29786;50.798;7.302;2023-05-07T03:38:08;2.8;;;1.9;;
44126;SDS011;29786;50.798;7.302;2023-05-07T03:39:22;2.4;;;1.8;;
44126;SDS011;29786;50.798;7.302;2023-05-07T03:41:50;2.5;;;1.9;;
44126;SDS011;29786;50.798;7.302;2023-05-07T03:43:04;2.3;;;1.8;;
44126;SDS011;29786;50.798;7.302;2023-05-07T03:44:18;2.1;;;1.9;;
44126;SDS011;29786;50.798;7.302;2023-05-07T03:46:47;3.2;;;1.8;;
44126;SDS011;29786;50.798;7.302;2023-05-07T03:48:01;2.5;;;1.7;;
44126;SDS011;29786;50.798;7.302;2023-05-07T03:49:15;2.1;;;1.9;;
44126;SDS011;29786;50.798;7.302;2023-05-07T03:51:43;2.7;;;1.7;;
44126;SDS011;29786;50.798;7.302;2023-05-07T03:52:57;3.7;;;1.7;;
44126;SDS011;29786;50.798;7.302;2023-05-07T03:54:12;3.1;;;1.7;;
44126;SDS011;29786;50.798;7.302;2023-05-07T03:55:26;2.5;;;1.7;;
44126;SDS011;29786;50.798;7.302;2023-05-07T03:57:54;2.4;;;2;;
44126;SDS011;29786;50.798;7.302;2023-05-07T03:59:08;2.1;;;1.7;;
44126;SDS011;29786;50.798;7.302;2023-05-07T04:00:22;3;;;1.6;;
44126;SDS011;29786;50.798;7.302;2023-05-07T04:02:50;2.7;;;1.6;;
44126;SDS011;29786;50.798;7.302;2023-05-07T04:04:05;2.7;;;1.5;;
44126;SDS011;29786;50.798;7.302;2023-05-07T04:05:19;2.4;;;1.6;;
44126;SDS011;29786;50.798;7.302;2023-05-07T04:07:47;3.3;;;1.6;;
44126;SDS011;29786;50.798;7.302;2023-05-07T04:09:01;3.3;;;1.7;;
44126;SDS011;29786;50.798;7.302;2023-05-07T04:10:16;2.7;;;1.7;;
44126;SDS011;29786;50.798;7.302;2023-05-07T04:12:43;2.1;;;1.7;;
44126;SDS011;29786;50.798;7.302;2023-05-07T04:13:58;2.9;;;1.9;;
44126;SDS011;29786;50.798;7.302;2023-05-07T04:15:12;1.8;;;1.6;;
44126;SDS011;29786;50.798;7.302;2023-05-07T04:16:26;2;;;1.8;;
44126;SDS011;29786;50.798;7.302;2023-05-07T04:18:54;3.1;;;1.6;;
44126;SDS011;29786;50.798;7.302;2023-05-07T04:20:09;2.9;;;1.8;;
44126;SDS011;29786;50.798;7.302;2023-05-07T04:21:23;2.1;;;1.7;;
44126;SDS011;29786;50.798;7.302;2023-05-07T04:23:51;1.9;;;1.7;;
44126;SDS011;29786;50.798;7.302;2023-05-07T04:25:05;3.5;;;2.2;;
44126;SDS011;29786;50.798;7.302;2023-05-07T04:26:19;1.9;;;1.6;;
44126;SDS011;29786;50.798;7.302;2023-05-07T04:28:47;1.9;;;1.6;;
44126;SDS011;29786;50.798;7.302;2023-05-07T04:30:02;2;;;1.8;;
44126;SDS011;29786;50.798;7.302;2023-05-07T04:31:15;4.1;;;1.7;;
44126;SDS011;29786;50.798;7.302;2023-05-07T04:33:44;2.3;;;1.8;;
44126;SDS011;29786;50.798;7.302;2023-05-07T04:34:58;1.8;;;1.7;;
44126;SDS011;29786;50.798;7.302;2023-05-07T04:36:12;2.1;;;1.7;;
44126;SDS011;29786;50.798;7.302;2023-05-07T04:38:40;3.3;;;2.1;;
44126;SDS011;29786;50.798;7.302;2023-05-07T04:39:54;2.3;;;1.6;;
44126;SDS011;29786;50.798;7.302;2023-05-07T04:41:09;2.2;;;1.5;;
44126;SDS011;29786;50.798;7.302;2023-05-07T04:42:23;3.2;;;1.9;;
44126;SDS011;29786;50.798;7.302;2023-05-07T04:44:52;2.4;;;1.6;;
44126;SDS011;29786;50.798;7.302;2023-05-07T04:46:05;3.1;;;1.6;;
44126;SDS011;29786;50.798;7.302;2023-05-07T04:47:19;4.7;;;2;;
44126;SDS011;29786;50.798;7.302;2023-05-07T04:49:48;2.7;;;1.9;;
44126;SDS011;29786;50.798;7.302;2023-05-07T04:51:02;1.7;;;1.6;;
44126;SDS011;29786;50.798;7.302;2023-05-07T04:52:16;2.3;;;1.5;;
44126;SDS011;29786;50.798;7.302;2023-05-07T04:54:44;2.5;;;1.8;;
44126;SDS011;29786;50.798;7.302;2023-05-07T04:55:58;2.5;;;1.8;;
44126;SDS011;29786;50.798;7.302;2023-05-07T04:57:12;2.5;;;1.8;;
44126;SDS011;29786;50.798;7.302;2023-05-07T04:59:41;3.8;;;1.8;;
44126;SDS011;29786;50.798;7.302;2023-05-07T05:00:55;2.5;;;1.9;;
44126;SDS011;29786;50.798;7.302;2023-05-07T05:02:10;3;;;1.7;;
44126;SDS011;29786;50.798;7.302;2023-05-07T05:03:23;3.4;;;2.2;;
44126;SDS011;29786;50.798;7.302;2023-05-07T05:05:51;1.8;;;1.7;;
44126;SDS011;29786;50.798;7.302;2023-05-07T05:07:05;4.4;;;1.7;;
44126;SDS011;29786;50.798;7.302;2023-05-07T05:08:19;2.5;;;1.8;;
44126;SDS011;29786;50.798;7.302;2023-05-07T05:10:56;2.1;;;1.7;;
44126;SDS011;29786;50.798;7.302;2023-05-07T05:12:02;2.9;;;2;;
44126;SDS011;29786;50.798;7.302;2023-05-07T05:13:16;1.9;;;1.7;;
44126;SDS011;29786;50.798;7.302;2023-05-07T05:15:44;2.1;;;1.6;;
44126;SDS011;29786;50.798;7.302;2023-05-07T05:16:59;3.1;;;1.8;;
44126;SDS011;29786;50.798;7.302;2023-05-07T05:18:13;4.5;;;1.9;;
44126;SDS011;29786;50.798;7.302;2023-05-07T05:20:41;2.7;;;1.9;;
44126;SDS011;29786;50.798;7.302;2023-05-07T05:21:55;2.3;;;1.8;;
44126;SDS011;29786;50.798;7.302;2023-05-07T05:23:09;3;;;1.8;;
44126;SDS011;29786;50.798;7.302;2023-05-07T05:24:23;1.8;;;1.6;;
44126;SDS011;29786;50.798;7.302;2023-05-07T05:26:53;2;;;1.6;;
44126;SDS011;29786;50.798;7.302;2023-05-07T05:28:06;2.6;;;1.8;;
44126;SDS011;29786;50.798;7.302;2023-05-07T05:29:20;3.6;;;1.6;;
44126;SDS011;29786;50.798;7.302;2023-05-07T05:31:48;3;;;1.7;;
44126;SDS011;29786;50.798;7.302;2023-05-07T05:33:02;2.9;;;1.9;;
44126;SDS011;29786;50.798;7.302;2023-05-07T05:34:16;2.7;;;1.8;;
44126;SDS011;29786;50.798;7.302;2023-05-07T05:36:45;1.7;;;1.6;;
44126;SDS011;29786;50.798;7.302;2023-05-07T05:37:59;2.6;;;1.7;;
44126;SDS011;29786;50.798;7.302;2023-05-07T05:39:13;1.7;;;1.5;;
44126;SDS011;29786;50.798;7.302;2023-05-07T05:40:27;2.5;;;1.9;;
44126;SDS011;29786;50.798;7.302;2023-05-07T05:41:41;3;;;2;;
44126;SDS011;29786;50.798;7.302;2023-05-07T05:42:55;2.7;;;1.9;;
44126;SDS011;29786;50.798;7.302;2023-05-07T05:44:09;2.9;;;1.8;;
44126;SDS011;29786;50.798;7.302;2023-05-07T05:45:24;2.4;;;1.6;;
44126;SDS011;29786;50.798;7.302;2023-05-07T05:47:52;2.7;;;1.7;;
44126;SDS011;29786;50.798;7.302;2023-05-07T05:49:06;2.4;;;1.6;;
44126;SDS011;29786;50.798;7.302;2023-05-07T05:50:20;2.2;;;1.6;;
44126;SDS011;29786;50.798;7.302;2023-05-07T05:52:48;1.5;;;1.4;;
44126;SDS011;29786;50.798;7.302;2023-05-07T05:54:02;1.9;;;1.6;;
44126;SDS011;29786;50.798;7.302;2023-05-07T05:55:17;1.7;;;1.6;;
44126;SDS011;29786;50.798;7.302;2023-05-07T05:57:45;2.4;;;1.6;;
44126;SDS011;29786;50.798;7.302;2023-05-07T05:58:59;2.3;;;1.7;;
44126;SDS011;29786;50.798;7.302;2023-05-07T06:00:13;2;;;1.5;;
44126;SDS011;29786;50.798;7.302;2023-05-07T06:02:41;2.2;;;1.7;;
44126;SDS011;29786;50.798;7.302;2023-05-07T06:03:56;1.9;;;1.6;;
44126;SDS011;29786;50.798;7.302;2023-05-07T06:05:10;1.9;;;1.5;;
44126;SDS011;29786;50.798;7.302;2023-05-07T06:06:24;2.6;;;1.6;;
44126;SDS011;29786;50.798;7.302;2023-05-07T06:08:52;2.1;;;1.6;;
44126;SDS011;29786;50.798;7.302;2023-05-07T06:10:06;1.8;;;1.7;;
44126;SDS011;29786;50.798;7.302;2023-05-07T06:11:20;2;;;1.6;;
44126;SDS011;29786;50.798;7.302;2023-05-07T06:13:49;3.4;;;1.9;;
44126;SDS011;29786;50.798;7.302;2023-05-07T06:15:03;2.9;;;1.7;;
44126;SDS011;29786;50.798;7.302;2023-05-07T06:16:17;1.8;;;1.5;;
44126;SDS011;29786;50.798;7.302;2023-05-07T06:18:45;2;;;1.7;;
44126;SDS011;29786;50.798;7.302;2023-05-07T06:19:59;2.5;;;1.7;;
44126;SDS011;29786;50.798;7.302;2023-05-07T06:21:13;2.5;;;2.2;;
44126;SDS011;29786;50.798;7.302;2023-05-07T06:23:42;2.7;;;1.6;;
44126;SDS011;29786;50.798;7.302;2023-05-07T06:24:56;2.2;;;1.5;;
44126;SDS011;29786;50.798;7.302;2023-05-07T06:26:10;2.2;;;1.7;;
44126;SDS011;29786;50.798;7.302;2023-05-07T06:27:24;1.7;;;1.6;;
44126;SDS011;29786;50.798;7.302;2023-05-07T06:29:52;4.8;;;1.5;;
44126;SDS011;29786;50.798;7.302;2023-05-07T06:31:22;2.1;;;1.7;;
44126;SDS011;29786;50.798;7.302;2023-05-07T06:32:21;2;;;1.8;;
44126;SDS011;29786;50.798;7.302;2023-05-07T06:34:49;2.9;;;1.6;;
44126;SDS011;29786;50.798;7.302;2023-05-07T06:36:03;2.5;;;1.6;;
44126;SDS011;29786;50.798;7.302;2023-05-07T06:37:17;2.4;;;1.7;;
44126;SDS011;29786;50.798;7.302;2023-05-07T06:39:45;1.7;;;1.5;;
44126;SDS011;29786;50.798;7.302;2023-05-07T06:41:00;2.2;;;1.7;;
44126;SDS011;29786;50.798;7.302;2023-05-07T06:42:14;2.2;;;1.7;;
44126;SDS011;29786;50.798;7.302;2023-05-07T06:44:42;2.5;;;1.6;;
44126;SDS011;29786;50.798;7.302;2023-05-07T06:45:56;2.2;;;1.6;;
44126;SDS011;29786;50.798;7.302;2023-05-07T06:47:10;1.3;;;1.2;;
44126;SDS011;29786;50.798;7.302;2023-05-07T06:48:24;2.5;;;1.7;;
44126;SDS011;29786;50.798;7.302;2023-05-07T06:50:53;1.6;;;1.5;;
44126;SDS011;29786;50.798;7.302;2023-05-07T06:52:07;3.1;;;1.6;;
44126;SDS011;29786;50.798;7.302;2023-05-07T06:53:21;1.6;;;1.5;;
44126;SDS011;29786;50.798;7.302;2023-05-07T06:55:49;2;;;1.4;;
44126;SDS011;29786;50.798;7.302;2023-05-07T06:57:03;2.8;;;1.7;;
44126;SDS011;29786;50.798;7.302;2023-05-07T06:58:18;2;;;1.6;;
44126;SDS011;29786;50.798;7.302;2023-05-07T07:00:46;2.8;;;1.7;;
44126;SDS011;29786;50.798;7.302;2023-05-07T07:02:00;2.7;;;1.7;;
44126;SDS011;29786;50.798;7.302;2023-05-07T07:03:14;2.1;;;1.6;;
44126;SDS011;29786;50.798;7.302;2023-05-07T07:04:28;2.7;;;1.8;;
44126;SDS011;29786;50.798;7.302;2023-05-07T07:05:42;3.2;;;1.3;;
44126;SDS011;29786;50.798;7.302;2023-05-07T07:06:57;2.7;;;1.5;;
44126;SDS011;29786;50.798;7.302;2023-05-07T07:08:10;3;;;1.6;;
44126;SDS011;29786;50.798;7.302;2023-05-07T07:09:25;2.5;;;1.5;;
44126;SDS011;29786;50.798;7.302;2023-05-07T07:11:53;1.9;;;1.5;;
44126;SDS011;29786;50.798;7.302;2023-05-07T07:13:07;3.4;;;1.7;;
44126;SDS011;29786;50.798;7.302;2023-05-07T07:14:21;3.2;;;1.7;;
44126;SDS011;29786;50.798;7.302;2023-05-07T07:16:50;3.3;;;1.8;;
44126;SDS011;29786;50.798;7.302;2023-05-07T07:18:04;1.6;;;1.5;;
44126;SDS011;29786;50.798;7.302;2023-05-07T07:19:18;2.5;;;1.5;;
44126;SDS011;29786;50.798;7.302;2023-05-07T07:21:46;2.6;;;1.6;;
44126;SDS011;29786;50.798;7.302;2023-05-07T07:23:00;3.7;;;1.4;;
44126;SDS011;29786;50.798;7.302;2023-05-07T07:24:14;1.8;;;1.4;;
44126;SDS011;29786;50.798;7.302;2023-05-07T07:26:42;2;;;1.5;;
44126;SDS011;29786;50.798;7.302;2023-05-07T07:27:57;3.1;;;1.8;;
44126;SDS011;29786;50.798;7.302;2023-05-07T07:29:11;3.3;;;1.8;;
44126;SDS011;29786;50.798;7.302;2023-05-07T07:30:25;2.1;;;1.4;;
44126;SDS011;29786;50.798;7.302;2023-05-07T07:32:54;2.7;;;1.5;;
44126;SDS011;29786;50.798;7.302;2023-05-07T07:34:07;2.5;;;1.5;;
44126;SDS011;29786;50.798;7.302;2023-05-07T07:35:21;2.9;;;1.5;;
44126;SDS011;29786;50.798;7.302;2023-05-07T07:37:50;2.8;;;1.5;;
44126;SDS011;29786;50.798;7.302;2023-05-07T07:39:04;1.7;;;1.4;;
44126;SDS011;29786;50.798;7.302;2023-05-07T07:40:18;1.7;;;1.4;;
44126;SDS011;29786;50.798;7.302;2023-05-07T07:42:46;3;;;1.6;;
44126;SDS011;29786;50.798;7.302;2023-05-07T07:44:00;2;;;1.6;;
44126;SDS011;29786;50.798;7.302;2023-05-07T07:45:15;3.1;;;1.5;;
44126;SDS011;29786;50.798;7.302;2023-05-07T07:47:43;2.4;;;1.5;;
44126;SDS011;29786;50.798;7.302;2023-05-07T07:48:57;1.6;;;1.4;;
44126;SDS011;29786;50.798;7.302;2023-05-07T07:50:11;2.4;;;1.5;;
44126;SDS011;29786;50.798;7.302;2023-05-07T07:51:25;2.3;;;1.6;;
44126;SDS011;29786;50.798;7.302;2023-05-07T07:53:53;4;;;1.7;;
44126;SDS011;29786;50.798;7.302;2023-05-07T07:55:08;1.7;;;1.6;;
44126;SDS011;29786;50.798;7.302;2023-05-07T07:56:22;2.6;;;1.4;;
44126;SDS011;29786;50.798;7.302;2023-05-07T07:58:50;2.3;;;1.6;;
44126;SDS011;29786;50.798;7.302;2023-05-07T08:00:04;2.7;;;1.5;;
44126;SDS011;29786;50.798;7.302;2023-05-07T08:01:18;3.3;;;1.3;;
44126;SDS011;29786;50.798;7.302;2023-05-07T08:03:46;2.2;;;1.5;;
44126;SDS011;29786;50.798;7.302;2023-05-07T08:05:01;1.8;;;1.5;;
44126;SDS011;29786;50.798;7.302;2023-05-07T08:06:15;2.2;;;1.4;;
44126;SDS011;29786;50.798;7.302;2023-05-07T08:08:43;2;;;1.5;;
44126;SDS011;29786;50.798;7.302;2023-05-07T08:09:57;2.6;;;1.5;;
44126;SDS011;29786;50.798;7.302;2023-05-07T08:11:11;1.9;;;1.5;;
44126;SDS011;29786;50.798;7.302;2023-05-07T08:12:25;1.9;;;1.5;;
44126;SDS011;29786;50.798;7.302;2023-05-07T08:14:54;3.8;;;1.4;;
44126;SDS011;29786;50.798;7.302;2023-05-07T08:16:08;2.8;;;1.6;;
44126;SDS011;29786;50.798;7.302;2023-05-07T08:17:22;2;;;1.5;;
44126;SDS011;29786;50.798;7.302;2023-05-07T08:19:50;2.5;;;1.4;;
44126;SDS011;29786;50.798;7.302;2023-05-07T08:21:04;1.9;;;1.6;;
44126;SDS011;29786;50.798;7.302;2023-05-07T08:22:19;1.9;;;1.5;;
44126;SDS011;29786;50.798;7.302;2023-05-07T08:24:47;2;;;1.2;;
44126;SDS011;29786;50.798;7.302;2023-05-07T08:26:01;3.1;;;1.6;;
44126;SDS011;29786;50.798;7.302;2023-05-07T08:27:15;1.9;;;1.5;;
44126;SDS011;29786;50.798;7.302;2023-05-07T08:29:43;1.8;;;1.4;;
44126;SDS011;29786;50.798;7.302;2023-05-07T08:30:57;3.9;;;1.6;;
44126;SDS011;29786;50.798;7.302;2023-05-07T08:32:12;4.7;;;1.5;;
44126;SDS011;29786;50.798;7.302;2023-05-07T08:33:26;2.2;;;1.3;;
44126;SDS011;29786;50.798;7.302;2023-05-07T08:35:54;2.1;;;1.5;;
44126;SDS011;29786;50.798;7.302;2023-05-07T08:37:08;3.2;;;1.4;;
44126;SDS011;29786;50.798;7.302;2023-05-07T08:38:22;3.1;;;1.5;;
44126;SDS011;29786;50.798;7.302;2023-05-07T08:40:50;3.4;;;1.3;;
44126;SDS011;29786;50.798;7.302;2023-05-07T08:42:05;2.8;;;1.5;;
44126;SDS011;29786;50.798;7.302;2023-05-07T08:43:19;2.9;;;1.3;;
44126;SDS011;29786;50.798;7.302;2023-05-07T08:45:47;5.2;;;1.5;;
44126;SDS011;29786;50.798;7.302;2023-05-07T08:47:01;1.6;;;1.3;;
44126;SDS011;29786;50.798;7.302;2023-05-07T08:48:16;2.7;;;1.3;;
44126;SDS011;29786;50.798;7.302;2023-05-07T08:50:44;1.3;;;1.2;;
44126;SDS011;29786;50.798;7.302;2023-05-07T08:51:58;2.2;;;1.2;;
44126;SDS011;29786;50.798;7.302;2023-05-07T08:53:12;1.8;;;1.2;;
44126;SDS011;29786;50.798;7.302;2023-05-07T08:54:26;1.6;;;1.2;;
44126;SDS011;29786;50.798;7.302;2023-05-07T08:56:54;2.5;;;1.4;;
44126;SDS011;29786;50.798;7.302;2023-05-07T08:58:08;2.2;;;1.5;;
44126;SDS011;29786;50.798;7.302;2023-05-07T08:59:22;2.1;;;1.5;;
44126;SDS011;29786;50.798;7.302;2023-05-07T09:01:51;2;;;1.3;;
44126;SDS011;29786;50.798;7.302;2023-05-07T09:03:05;1.5;;;1.3;;
44126;SDS011;29786;50.798;7.302;2023-05-07T09:04:19;2.5;;;1.4;;
44126;SDS011;29786;50.798;7.302;2023-05-07T09:06:47;2.4;;;1.5;;
44126;SDS011;29786;50.798;7.302;2023-05-07T09:08:02;2.6;;;1.6;;
44126;SDS011;29786;50.798;7.302;2023-05-07T09:09:16;2.3;;;1.4;;
44126;SDS011;29786;50.798;7.302;2023-05-07T09:11:44;2.3;;;1.6;;
44126;SDS011;29786;50.798;7.302;2023-05-07T09:12:58;1.6;;;1.4;;
44126;SDS011;29786;50.798;7.302;2023-05-07T09:14:12;2.3;;;1.4;;
44126;SDS011;29786;50.798;7.302;2023-05-07T09:15:28;2.8;;;1.6;;
44126;SDS011;29786;50.798;7.302;2023-05-07T09:17:59;3.3;;;1.4;;
44126;SDS011;29786;50.798;7.302;2023-05-07T09:19:09;2.2;;;1.4;;
44126;SDS011;29786;50.798;7.302;2023-05-07T09:20:23;4.5;;;1.5;;
44126;SDS011;29786;50.798;7.302;2023-05-07T09:22:51;2.8;;;1.5;;
44126;SDS011;29786;50.798;7.302;2023-05-07T09:24:05;2.8;;;1.5;;
44126;SDS011;29786;50.798;7.302;2023-05-07T09:25:27;2.6;;;1.5;;
44126;SDS011;29786;50.798;7.302;2023-05-07T09:27:48;3.6;;;1.5;;
44126;SDS011;29786;50.798;7.302;2023-05-07T09:29:02;1.5;;;1.4;;
44126;SDS011;29786;50.798;7.302;2023-05-07T09:30:16;2.3;;;1.3;;
44126;SDS011;29786;50.798;7.302;2023-05-07T09:32:44;2.1;;;1.4;;
44126;SDS011;29786;50.798;7.302;2023-05-07T09:33:58;2;;;1.4;;
44126;SDS011;29786;50.798;7.302;2023-05-07T09:35:14;2.2;;;1.2;;
44126;SDS011;29786;50.798;7.302;2023-05-07T09:36:27;4.7;;;1.6;;
44126;SDS011;29786;50.798;7.302;2023-05-07T09:38:55;2.8;;;1.4;;
44126;SDS011;29786;50.798;7.302;2023-05-07T09:40:19;2.5;;;1.4;;
44126;SDS011;29786;50.798;7.302;2023-05-07T09:41:23;3.4;;;1.4;;
44126;SDS011;29786;50.798;7.302;2023-05-07T09:43:53;1.8;;;1.3;;
44126;SDS011;29786;50.798;7.302;2023-05-07T09:45:06;2.2;;;1.2;;
44126;SDS011;29786;50.798;7.302;2023-05-07T09:46:20;2.1;;;1.4;;
44126;SDS011;29786;50.798;7.302;2023-05-07T09:48:48;2.2;;;1.3;;
44126;SDS011;29786;50.798;7.302;2023-05-07T09:50:02;2.4;;;1.5;;
44126;SDS011;29786;50.798;7.302;2023-05-07T09:51:21;1.2;;;1.1;;
44126;SDS011;29786;50.798;7.302;2023-05-07T09:53:45;1.9;;;1.7;;
44126;SDS011;29786;50.798;7.302;2023-05-07T09:54:58;1.5;;;1.3;;
44126;SDS011;29786;50.798;7.302;2023-05-07T09:56:13;1.4;;;1.2;;
44126;SDS011;29786;50.798;7.302;2023-05-07T09:58:41;2;;;1.3;;
44126;SDS011;29786;50.798;7.302;2023-05-07T09:59:55;1.4;;;1.2;;